Airfield :
LOGIN :

Register | Disclaimer

   EN    FR    IT 

 










Legend :    VFR   Marginal VFR   IFR   Intensive IFR   Very Intensive IFR
Visi :
Ceiling :
>= 8 km
>= 3000ft
5 to 8 km
1000 to 3000 ft
1500m to 5 km
500 to 1000 ft
800 to 1500m
200 to 500 ft
< 800m
< 200 ft
Symbols :   Thunderstorms  Fog  Heavy snow  Heavy precipitations  Wind > 20 kt
SIGMETs :     Misc.  Thunderstorms  Icing  Turbulence  Mountain Waves  Volcanic Ashes






- Airport Elevation : 353 ft
- IATA code : LIN


LIML - Milano Linate

CURRENT METAR :
  • 180450Z AUTO VRB02KT 9999 FEW061/// BKN094/// 09/04 Q1015

EXPIRED METARs :
  • 180420Z AUTO VRB01KT 9999 FEW063/// BKN090/// 09/04 Q1015
  • 180350Z AUTO 08002KT 9999 BKN062/// BKN091/// 09/03 Q1015
  • 180320Z AUTO VRB01KT 9999 BKN061/// BKN089/// 09/04 Q1015
  • 180250Z AUTO 06003KT 9999 SCT069/// SCT090/// BKN120/// 09/03 Q1015
  • 180220Z AUTO 08003KT 9999 BKN068/// 09/03 Q1015

TAF TAF LIML
Valid from the 18 at 00:00 until the 19 at 00:00 UTC


172300Z 1800/1824 VRB05KT 9999 FEW050
BECMG 1808/1810 15010KT
BECMG 1816/1818 VRB05KT BKN014



MET'MAP, your aeronautical weather chart ! - Copyright ORBIFLY December 2007 - Disclaimer

ORBIFLY MET'MAP TEAM :

Programming & Development : Alexandra Zaïnal
Concept & original design : Baudouin d'Aumeries
Assistance for programming : Marc-Olivier Méhu
Technical & hardware support : Manuel Goepfert

Contact : metmap@orbifly.com




SOURCES & CREDITS :

   NOAA